Flight Track Log - Related Links

Times and Time Zones

All times are in EDT time to prevent confusion due to time zone crossing. See the WIG1043 flight status page for this flight to view local times or setup timezone preferences in your user account.

Time Position Orientation Groundspeed Altitude Reporting Facility
EDT Latitude Longitude Course Direction KTS MPH feet Rate Location/Type
Thu 07:41:12 PM 44.8072 -68.9203 226° Southwest 157 181 3,300  Level Boston Center
Thu 07:42:13 PM 44.7756 -68.9658 226° Southwest 158 182 4,700 1,220 Climbing Boston Center
Thu 07:43:15 PM 44.7439 -69.0114 226° Southwest 159 183 5,800 634 Climbing Boston Center
Thu 07:44:16 PM 44.7108 -69.0639 228° Southwest 172 198 6,000 98 Climbing Boston Center
Thu 07:45:00 PM 44.6072 -69.1048 226° Southwest  Level FlightAware Approximate
Thu 07:45:17 PM 44.6703 -69.1192 224° Southwest 195 224 6,000  Level Boston Center
Thu 07:46:00 PM 44.5745 -69.1523 226° Southwest  Level FlightAware Approximate
Thu 07:46:19 PM 44.6303 -69.1761 225° Southwest 199 229 6,000  Level Boston Center
Thu 07:47:20 PM 44.5900 -69.2342 226° Southwest 201 231 6,000  Level Boston Center
Thu 07:48:22 PM 44.5464 -69.2889 222° Southwest 203 234 6,000 -49 Level Boston Center
Thu 07:49:23 PM 44.5042 -69.3467 224° Southwest 206 237 5,900  Descending Boston Center
Thu 07:50:25 PM 44.4539 -69.4142 224° Southwest 206 237 6,000 49 Climbing Boston Center
Thu 07:51:26 PM 44.4119 -69.4714 224° Southwest 206 237 6,000  Level Boston Center
Thu 07:52:28 PM 44.3717 -69.5292 226° Southwest 206 237 6,000  Level Boston Center
Thu 07:53:29 PM 44.3303 -69.5853 224° Southwest 206 237 6,000  Level Boston Center
Thu 07:54:31 PM 44.2883 -69.6400 223° Southwest 206 237 6,000  Level Boston Center
Thu 07:55:32 PM 44.2447 -69.7067 228° Southwest 213 245 6,000  Level Boston Center
Thu 07:56:34 PM 44.2044 -69.7611 224° Southwest 206 237 6,000 49 Level Boston Center
Thu 07:57:35 PM 44.1644 -69.8192 226° Southwest 205 236 6,100 49 Climbing Boston Center
Thu 07:58:37 PM 44.1194 -69.8775 223° Southwest 206 237 6,100  Level Boston Center
Thu 07:59:38 PM 44.0789 -69.9342 225° Southwest 207 238 6,100  Level Boston Center
Thu 08:00:39 PM 44.0361 -69.9872 222° Southwest 206 237 6,100  Level Boston Center
Thu 08:01:41 PM 43.9894 -70.0428 221° Southwest 206 237 6,100  Level Boston Center
Thu 08:02:42 PM 43.9489 -70.0978 224° Southwest 205 236 6,100 -49 Level Boston Center
Thu 08:03:44 PM 43.9069 -70.1522 223° Southwest 206 237 6,000 -49 Descending Boston Center
Thu 08:04:45 PM 43.8628 -70.2103 223° Southwest 205 236 6,000 49 Level Boston Center
Thu 08:05:47 PM 43.8231 -70.2631 224° Southwest 205 236 6,100 49 Climbing Boston Center
Thu 08:06:48 PM 43.7794 -70.3231 225° Southwest 205 236 6,100  Level Boston Center
Thu 08:07:49 PM 43.7369 -70.3764 222° Southwest 205 236 6,100  Level Boston Center
Thu 08:08:51 PM 43.6969 -70.4331 226° Southwest 205 236 6,100  Level Boston Center
Thu 08:09:52 PM 43.6525 -70.4917 224° Southwest 206 237 6,100  Level Boston Center
Thu 08:10:53 PM 43.6103 -70.5461 223° Southwest 205 236 6,100  Level Boston Center
Thu 08:11:55 PM 43.5683 -70.5981 222° Southwest 205 236 6,100  Level Boston Center
Thu 08:12:56 PM 43.5294 -70.6553 227° Southwest 206 237 6,100  Level Boston Center
Thu 08:13:57 PM 43.4861 -70.7178 226° Southwest 208 239 6,100  Level Boston Center
Thu 08:14:59 PM 43.4439 -70.7719 223° Southwest 209 241 6,100  Level Boston Center
Thu 08:16:00 PM 43.4006 -70.8317 225° Southwest 211 243 6,100  Level Boston Center
Thu 08:17:01 PM 43.3578 -70.8864 223° Southwest 212 244 6,100  Level Boston Center
Thu 08:18:02 PM 43.3153 -70.9406 223° Southwest 210 242 6,100 -49 Level Boston Center
Thu 08:19:04 PM 43.2692 -70.9986 223° Southwest 210 242 6,000 -195 Descending Boston Center
Thu 08:20:05 PM 43.2250 -71.0544 223° Southwest 214 246 5,700 -443 Descending Boston Center
Thu 08:21:06 PM 43.1858 -71.1192 230° Southwest 218 251 5,100 -689 Descending Boston Center
Thu 08:22:07 PM 43.1431 -71.1833 228° Southwest 225 259 4,300 -780 Descending Boston Center
Thu 08:23:09 PM 43.0922 -71.2464 222° Southwest 226 260 3,500 -732 Descending Boston Center
Thu 08:24:10 PM 43.0444 -71.3022 221° Southwest 229 264 2,800 -689 Descending Boston Center
Thu 08:25:11 PM 43.0064 -71.3500 223° Southwest 189 217 2,100 -738 Descending Boston Center
Thu 08:26:12 PM 42.9783 -71.3858 223° Southwest 130 150 1,300 -738 Descending Boston Center
Thu 08:27:13 PM 42.9547 -71.4158 223° Southwest 120 138 600 -689 Descending Boston Center
Thu 08:29:00 PM 42.9328 -71.4358 222° Southwest  Level Estimated
Thu 08:36:00 PM 42.9328 -71.4358 222° Southwest  Level Estimated

Login

Don't have an account? Register now (free) for customized features, flight alerts, and more!